NCAR-RAP Real-Time Weather Data

Output produced by METARs form (10 April 2020  06:04 UTC)
found at http://weather.rap.ucar.edu/surface/
 
KMSP 100553Z 32012G22KT 10SM CLR M01/M07 A3008 RMK AO2 SLP197 T10061072 10033 21011 400561011 53007
KMSP 100453Z 31013KT 10SM CLR 00/M06 A3007 RMK AO2 SLP192 T00001061
KMSP 100353Z 30013G21KT 10SM CLR 01/M06 A3007 RMK AO2 SLP191 T00061061
KMSP 100253Z 31012KT 10SM CLR 01/M07 A3006 RMK AO2 SLP189 T00111067 53014
KMSP 100153Z 31012KT 10SM BKN050 02/M08 A3005 RMK AO2 SLP183 T00221078
KMSP 100053Z 31015G19KT 10SM BKN055 03/M08 A3003 RMK AO2 SLP176 T00281083
KMSP 092353Z 33019G27KT 10SM BKN055 04/M09 A3002 RMK AO2 PK WND 32027/2350 SLP173 60002 T00391089 10056 21006 53019
KMSP 092253Z 33021G31KT 10SM BKN060 04/M07 A2999 RMK AO2 PK WND 35031/2248 SLP165 T00391072
KMSP 092153Z 33019G26KT 10SM SCT055 BKN070 04/M08 A2997 RMK AO2 PK WND 31033/2138 SLP157 T00391078
KMSP 092053Z 32021G30KT 10SM BKN075 04/M07 A2996 RMK AO2 PK WND 30036/2043 SLP152 PRESENT WX VCSH 60002 T00441067 51015
KMSP 091953Z 33026G32KT 10SM BKN050 OVC065 03/M07 A2995 RMK AO2 PK WND 33038/1856 SNB1858E15 SLP148 P0000 T00331067
KMSP 091914Z 32016KT 10SM R30L/5500VP6000FT -SN SCT022 SCT034 BKN049 01/M03 A2995 RMK AO2 PK WND 33038/1856 SNB1858 P0000 T00111033
KMSP 091907Z 32017G35KT 10SM R30L/3500VP6000FT -SN SCT020 BKN029 BKN039 M01/M03 A2995 RMK AO2 PK WND 33038/1856 SNB1858 P0000 T10061033
KMSP 091858Z 32027G38KT 3/4SM R30L/P6000FT -SN SCT037 BKN048 BKN055 02/M04 A2995 RMK AO2 PK WND 33038/1856 SNB58 P0000 T00171044
KMSP 091853Z 31020G30KT 7SM SCT039 BKN046 03/M03 A2993 RMK AO2 PK WND 31042/1816 UPB30E34SNB02E30 SLP144 P0002 T00331033
KMSP 091753Z 33011G19KT 7SM SCT022 BKN046 OVC075 01/M04 A2991 RMK AO2 PK WND 31039/1739 SNE01B20E53 SLP138 P0001 60001 T00061039 10028 21011 50018
KMSP 091741Z 34021G39KT 1/2SM R30L/P6000FT SN BKN022 BKN033 OVC080 01/M04 A2992 RMK AO2 PK WND 31039/1739 SNE01B20 P0001 T00061039
KMSP 091704Z 31017KT 10SM FEW027 BKN035 OVC049 00/M04 A2990 RMK AO2 SNE01 P0000 T00001039
KMSP 091657Z 31013G29KT 7SM R30L/5500VP6000FT -SN BKN028 BKN038 OVC049 M01/M04 A2990 RMK AO2 P0000 T10111039
KMSP 091653Z 32017G32KT 1SM R30L/5500VP6000FT -SN FEW026 BKN031 OVC049 M01/M04 A2990 RMK AO2 PK WND 31032/1642 TWR VIS 4 SNB37 SLP132 P0000 T10111039
KMSP 091647Z 33021G32KT 1/2SM R30L/P6000FT -SN FEW026 BKN036 OVC055 M01/M04 A2989 RMK AO2 PK WND 31032/1642 SFC VIS 1 3/4 VIS 1V5 SNB37 PRESRR P0000
KMSP 091553Z 30016KT 10SM BKN065 BKN070 03/M03 A2986 RMK AO2 PK WND 28028/1532 SNE00 SLP118 P0000 T00281033
KMSP 091453Z 32014G29KT 7SM -SN FEW011 BKN060 OVC070 01/M03 A2985 RMK AO2 PK WND 28030/1406 SNB1359 SLP116 P0000 60000 T00061028 53001
KMSP 091449Z 30013G27KT 7SM -SN FEW011 BKN042 OVC070 00/M02 A2985 RMK AO2 PK WND 28030/1406 SNB1359 P0000
KMSP 091437Z 29015G21KT 7SM -SN FEW009 BKN029 OVC070 M01/M02 A2985 RMK AO2 PK WND 28030/1406 SNB1359 P0000 T10061022
KMSP 091414Z 28014G30KT 4SM -SN BKN029 BKN038 OVC060 M01/M03 A2984 RMK AO2 PK WND 28030/1406 SNB1359 P0000 T10061033
KMSP 091353Z 30012KT 10SM BKN055 02/M05 A2984 RMK AO2 PK WND 30028/1318 SNB03E14 SLP112 P0000 T00221050
KMSP 091253Z 29011KT 10SM FEW045 BKN075 01/M04 A2985 RMK AO2 SLP114 T00111044
KMSP 091153Z 28010KT 10SM FEW070 01/M06 A2985 RMK AO2 SLP113 T00061056 10028 20006 55000
KMSP 091053Z 29010KT 10SM CLR 01/M06 A2984 RMK AO2 SLP110 T00061056 $
KMSP 090953Z 29011KT 10SM CLR 01/M06 A2984 RMK AO2 SLP109 T00111056 $
KMSP 090853Z 29011KT 10SM CLR 02/M06 A2985 RMK AO2 SLP112 T00171056 58008 $
KMSP 090753Z 28010G20KT 10SM CLR 02/M05 A2985 RMK AO2 SLP113 T00171050 $